Time;durP1;ratioP1;P1;durP2;ratioP2;P2;SDS_P1;SDS_P2;PMS_P1;PMS_P2;Temp;Humidity;BMP_temperature;BMP_pressure;BME280_temperature;BME280_humidity;BME280_pressure;Samples;Min_cycle;Max_cycle;Signal;HPM_P1;HPM_P2
2022/04/12 00:00:00;;;;;;;;;;;;;;;-1.60;81.78;98603.38;2589971;28;20012;-83
2022/04/12 00:01:16;;;;;;;;;;;;;;;-1.63;81.74;98608.44;2590938;28;20403;-82
2022/04/12 00:02:32;;;;;;;;;;;;;;;-1.63;80.93;98597.28;2589731;28;20318;-87
2022/04/12 00:03:47;;;;;;;;;;;;;;;-1.70;80.73;98603.97;2591273;28;20016;-86
2022/04/12 00:05:03;;;;;;;;;;;;;;;-1.76;81.17;98604.69;2590137;28;19932;-85
2022/04/12 00:06:18;;;;;;;;;;;;;;;-1.81;80.83;98605.44;2595657;28;19924;-85
2022/04/12 00:07:33;;;;;;;;;;;;;;;-1.85;81.92;98596.81;2594946;28;19925;-84
2022/04/12 00:08:49;;;;;;;;;;;;;;;-1.82;82.03;98601.13;2590458;28;19978;-85
2022/04/12 00:10:04;;;;;;;;;;;;;;;-1.84;82.28;98598.53;2592070;28;19925;-83
2022/04/12 00:11:20;;;;;;;;;;;;;;;-1.82;82.39;98590.84;2590207;28;20327;-83
2022/04/12 00:12:37;;;;;;;;;;;;;;;-1.80;82.41;98589.22;2589802;28;19921;-83
2022/04/12 00:13:53;;;;;;;;;;;;;;;-1.80;82.01;98590.06;2591576;28;19960;-83
2022/04/12 00:15:09;;;;;;;;;;;;;;;-1.82;82.08;98590.84;2590208;28;20407;-83
2022/04/12 00:16:24;;;;;;;;;;;;;;;-1.83;81.63;98584.88;2592756;28;19925;-84
2022/04/12 00:19:14;;;;;;;;;;;;;;;-1.83;82.00;98583.97;2592337;28;19925;-84
2022/04/12 00:20:30;;;;;;;;;;;;;;;-1.81;82.82;98587.47;2590117;28;19933;-83
2022/04/12 00:21:45;;;;;;;;;;;;;;;-1.80;82.94;98586.66;2589679;28;20383;-83
2022/04/12 00:23:01;;;;;;;;;;;;;;;-1.88;83.25;98589.88;2590911;28;19929;-83
2022/04/12 00:24:16;;;;;;;;;;;;;;;-1.91;82.84;98582.13;2590554;28;19925;-85
2022/04/12 00:25:32;;;;;;;;;;;;;;;-1.92;82.66;98579.50;2593209;28;20018;-84
2022/04/12 00:26:49;;;;;;;;;;;;;;;-1.94;81.82;98582.06;2592131;28;19931;-84
2022/04/12 00:28:05;;;;;;;;;;;;;;;-1.97;82.35;98584.50;2591947;28;20429;-83
2022/04/12 00:29:20;;;;;;;;;;;;;;;-2.03;82.17;98581.81;2592239;28;20134;-86
2022/04/12 00:30:36;;;;;;;;;;;;;;;-2.05;82.21;98581.75;2593841;28;19932;-84
2022/04/12 00:31:52;;;;;;;;;;;;;;;-2.15;82.23;98583.25;2593846;28;19925;-84
2022/04/12 00:33:07;;;;;;;;;;;;;;;-2.15;82.43;98583.25;2591573;28;19991;-84
2022/04/12 00:34:24;;;;;;;;;;;;;;;-2.16;82.77;98586.63;2594125;28;19972;-83
2022/04/12 00:35:40;;;;;;;;;;;;;;;-2.17;82.72;98592.59;2593784;28;20455;-83
2022/04/12 00:36:55;;;;;;;;;;;;;;;-2.17;82.22;98587.47;2594457;28;19925;-84
2022/04/12 00:38:17;;;;;;;;;;;;;;;-2.16;82.35;98591.75;2594407;28;19978;-83
2022/04/12 00:39:34;;;;;;;;;;;;;;;-2.20;82.14;98589.97;2593704;28;19922;-83
2022/04/12 00:40:50;;;;;;;;;;;;;;;-2.20;82.43;98589.06;2591878;28;19929;-84
2022/04/12 00:42:05;;;;;;;;;;;;;;;-2.19;82.54;98589.13;2593356;28;20342;-84
2022/04/12 00:43:25;;;;;;;;;;;;;;;-2.15;82.26;98588.38;2594297;28;19982;-84
2022/04/12 00:44:41;;;;;;;;;;;;;;;-2.23;82.51;98592.47;2594923;28;20660;-84
2022/04/12 00:46:00;;;;;;;;;;;;;;;-2.30;83.23;98596.56;2593552;28;19924;-84
2022/04/12 00:47:15;;;;;;;;;;;;;;;-2.25;82.95;98600.94;2594293;28;20008;-83
2022/04/12 00:48:31;;;;;;;;;;;;;;;-2.24;82.93;98597.53;2594764;28;19956;-82
2022/04/12 00:49:47;;;;;;;;;;;;;;;-2.30;82.48;98598.25;2592664;28;20352;-81
2022/04/12 00:51:02;;;;;;;;;;;;;;;-2.31;82.23;98602.47;2592357;28;19921;-83
2022/04/12 00:52:18;;;;;;;;;;;;;;;-2.31;82.60;98601.63;2593474;28;19928;-82
2022/04/12 00:53:33;;;;;;;;;;;;;;;-2.30;83.36;98600.81;2594077;28;20004;-82
2022/04/12 00:54:49;;;;;;;;;;;;;;;-2.33;83.02;98605.84;2594087;28;20863;-82
2022/04/12 00:56:05;;;;;;;;;;;;;;;-2.36;82.89;98601.50;2592840;28;19929;-82
2022/04/12 00:57:20;;;;;;;;;;;;;;;-2.36;83.19;98598.94;2592367;28;19929;-82
2022/04/12 00:58:36;;;;;;;;;;;;;;;-2.36;83.61;98608.34;2594114;28;20391;-82
2022/04/12 00:59:54;;;;;;;;;;;;;;;-2.38;83.29;98604.84;2592314;28;19925;-87
2022/04/12 01:01:10;;;;;;;;;;;;;;;-2.39;83.43;98605.69;2592628;28;19965;-82
2022/04/12 01:02:25;;;;;;;;;;;;;;;-2.41;83.06;98608.22;2593837;28;19929;-81
2022/04/12 01:03:41;;;;;;;;;;;;;;;-2.40;83.12;98604.81;2594351;28;19935;-82
2022/04/12 01:04:56;;;;;;;;;;;;;;;-2.38;82.92;98612.53;2591777;28;19936;-82
2022/04/12 01:06:13;;;;;;;;;;;;;;;-2.39;82.48;98606.56;2594664;28;19932;-82
2022/04/12 01:07:29;;;;;;;;;;;;;;;-2.41;81.96;98605.66;2592980;28;19925;-82
2022/04/12 01:08:44;;;;;;;;;;;;;;;-2.46;81.83;98604.66;2594266;28;20018;-84
2022/04/12 01:10:00;;;;;;;;;;;;;;;-2.47;81.22;98608.94;2594516;28;19925;-83
2022/04/12 01:11:16;;;;;;;;;;;;;;;-2.51;81.87;98604.56;2592657;28;20408;-82
2022/04/12 01:12:38;;;;;;;;;;;;;;;-2.53;81.90;98616.44;2591551;28;19976;-84
2022/04/12 01:13:54;;;;;;;;;;;;;;;-2.54;82.46;98604.44;2593540;28;19961;-82
2022/04/12 01:15:14;;;;;;;;;;;;;;;-2.58;82.10;98606.06;2592676;28;20319;-82
2022/04/12 01:16:29;;;;;;;;;;;;;;;-2.56;82.18;98606.09;2592601;28;20450;-83
2022/04/12 01:17:46;;;;;;;;;;;;;;;-2.58;82.30;98610.31;2593987;28;19925;-83
2022/04/12 01:19:02;;;;;;;;;;;;;;;-2.63;82.02;98605.06;2591925;28;19929;-82
2022/04/12 01:20:19;;;;;;;;;;;;;;;-2.65;82.38;98605.88;2592469;28;19931;-82
2022/04/12 01:21:52;;;;;;;;;;;;;;;-2.68;82.59;98606.66;2594080;28;19944;-82
2022/04/12 01:23:27;;;;;;;;;;;;;;;-2.65;82.91;98601.59;2592013;28;19925;-82
2022/04/12 01:24:43;;;;;;;;;;;;;;;-2.62;82.15;98603.38;2592287;28;19947;-82
2022/04/12 01:25:59;;;;;;;;;;;;;;;-2.58;82.27;98598.38;2593633;28;19925;-88
2022/04/12 01:27:15;;;;;;;;;;;;;;;-2.52;82.80;98596.81;2591052;28;19925;-82
2022/04/12 01:28:30;;;;;;;;;;;;;;;-2.47;83.31;98596.09;2601784;28;20375;-85
2022/04/12 01:29:47;;;;;;;;;;;;;;;-2.47;83.06;98596.09;2599448;28;19971;-82
2022/04/12 01:31:02;;;;;;;;;;;;;;;-2.47;82.93;98598.66;2594432;28;20395;-81
2022/04/12 01:32:18;;;;;;;;;;;;;;;-2.51;82.50;98593.41;2593583;28;20293;-82
2022/04/12 01:33:33;;;;;;;;;;;;;;;-2.60;82.28;98599.16;2591360;28;19979;-82
2022/04/12 01:34:49;;;;;;;;;;;;;;;-2.65;82.61;98599.03;2592980;28;19971;-84
2022/04/12 01:36:04;;;;;;;;;;;;;;;-2.64;82.80;98599.91;2593451;28;20331;-82
2022/04/12 01:37:20;;;;;;;;;;;;;;;-2.63;83.07;98601.66;2591583;28;20299;-82
2022/04/12 01:38:35;;;;;;;;;;;;;;;-2.65;82.89;98598.19;2591335;28;19967;-83
2022/04/12 01:39:51;;;;;;;;;;;;;;;-2.63;82.64;98593.97;2591446;28;20418;-82
2022/04/12 01:41:06;;;;;;;;;;;;;;;-2.61;82.16;98587.19;2590908;28;19995;-82
2022/04/12 01:42:22;;;;;;;;;;;;;;;-2.60;82.25;98588.91;2591442;28;19975;-83
2022/04/12 01:43:37;;;;;;;;;;;;;;;-2.61;82.96;98582.91;2593122;28;19932;-82
2022/04/12 01:44:52;;;;;;;;;;;;;;;-2.62;82.60;98585.44;2593323;28;19935;-82
2022/04/12 01:46:08;;;;;;;;;;;;;;;-2.63;82.66;98579.44;2594485;28;19921;-84
2022/04/12 01:47:23;;;;;;;;;;;;;;;-2.65;82.49;98586.22;2592993;28;20375;-82
2022/04/12 01:48:39;;;;;;;;;;;;;;;-2.66;82.05;98588.72;2593221;28;19922;-82
2022/04/12 01:49:54;;;;;;;;;;;;;;;-2.70;81.76;98582.69;2593661;28;19921;-82
2022/04/12 01:51:09;;;;;;;;;;;;;;;-2.71;82.63;98586.91;2592568;28;19956;-82
2022/04/12 01:52:25;;;;;;;;;;;;;;;-2.71;82.49;98584.34;2591558;28;19979;-82
2022/04/12 01:53:40;;;;;;;;;;;;;;;-2.72;82.85;98585.19;2593090;28;19936;-83
2022/04/12 01:54:56;;;;;;;;;;;;;;;-2.77;83.13;98585.88;2592140;28;20199;-83
2022/04/12 01:56:11;;;;;;;;;;;;;;;-2.79;82.95;98585.84;2594268;28;19940;-82
2022/04/12 01:57:27;;;;;;;;;;;;;;;-2.82;82.93;98588.31;2593861;28;19961;-83
2022/04/12 01:58:42;;;;;;;;;;;;;;;-2.87;83.77;98585.59;2592492;28;20277;-82
2022/04/12 01:59:58;;;;;;;;;;;;;;;-2.90;84.19;98582.13;2591434;28;19932;-84
2022/04/12 02:01:13;;;;;;;;;;;;;;;-2.95;84.89;98581.97;2592064;28;20188;-83
2022/04/12 02:02:29;;;;;;;;;;;;;;;-2.96;83.90;98587.94;2591307;28;19925;-83
2022/04/12 02:03:46;;;;;;;;;;;;;;;-2.96;83.60;98589.63;2591907;28;19931;-82
2022/04/12 02:05:02;;;;;;;;;;;;;;;-2.97;83.38;98586.19;2590771;28;20017;-86
2022/04/12 02:06:17;;;;;;;;;;;;;;;-2.96;82.58;98587.06;2585583;28;19987;-83
2022/04/12 02:07:33;;;;;;;;;;;;;;;-2.95;82.30;98587.09;2593620;28;20273;-84
2022/04/12 02:08:48;;;;;;;;;;;;;;;-2.99;82.16;98582.72;2593369;28;19948;-83
2022/04/12 02:10:04;;;;;;;;;;;;;;;-2.98;82.21;98585.31;2591743;28;19928;-83
2022/04/12 02:11:19;;;;;;;;;;;;;;;-2.97;81.96;98586.19;2593308;28;19925;-83
2022/04/12 02:12:35;;;;;;;;;;;;;;;-2.99;81.60;98588.72;2592766;28;19925;-82
2022/04/12 02:13:51;;;;;;;;;;;;;;;-3.01;81.49;98589.47;2592858;28;19959;-82
2022/04/12 02:15:06;;;;;;;;;;;;;;;-3.09;81.46;98586.69;2594289;28;19921;-82
2022/04/12 02:16:23;;;;;;;;;;;;;;;-3.10;81.31;98590.09;2591653;28;19945;-82
2022/04/12 02:17:38;;;;;;;;;;;;;;;-3.13;81.09;98587.44;2591275;28;20257;-84
2022/04/12 02:18:53;;;;;;;;;;;;;;;-3.14;81.37;98585.72;2591277;28;19925;-83
2022/04/12 02:20:09;;;;;;;;;;;;;;;-3.10;81.64;98587.53;2591863;28;20009;-82
2022/04/12 02:21:25;;;;;;;;;;;;;;;-3.12;81.77;98584.94;2593074;28;19947;-83
2022/04/12 02:22:40;;;;;;;;;;;;;;;-3.12;82.15;98590.06;2593151;28;19933;-84
2022/04/12 02:23:55;;;;;;;;;;;;;;;-3.15;82.65;98591.66;2591530;28;20395;-85
2022/04/12 02:25:11;;;;;;;;;;;;;;;-3.14;82.52;98593.38;2593861;28;20329;-83
2022/04/12 02:26:26;;;;;;;;;;;;;;;-3.09;82.96;98591.81;2591881;28;19925;-83
2022/04/12 02:27:42;;;;;;;;;;;;;;;-3.07;82.96;98597.88;2591151;28;19929;-83
2022/04/12 02:28:57;;;;;;;;;;;;;;;-3.07;83.08;98594.44;2591534;28;19921;-82
2022/04/12 02:30:13;;;;;;;;;;;;;;;-3.07;82.55;98597.00;2592754;28;19968;-83
2022/04/12 02:31:28;;;;;;;;;;;;;;;-3.08;81.97;98601.25;2591855;28;20408;-82
2022/04/12 02:32:44;;;;;;;;;;;;;;;-3.07;81.66;98591.88;2593480;28;19921;-82
2022/04/12 02:33:59;;;;;;;;;;;;;;;-3.08;81.52;98591.00;2592339;28;20363;-83
2022/04/12 02:35:15;;;;;;;;;;;;;;;-3.07;81.25;98594.44;2591943;28;19925;-82
2022/04/12 02:36:30;;;;;;;;;;;;;;;-3.08;81.16;98596.13;2592980;28;19964;-82
2022/04/12 02:37:46;;;;;;;;;;;;;;;-3.12;81.32;98596.84;2591516;28;19924;-84
2022/04/12 02:39:01;;;;;;;;;;;;;;;-3.15;81.12;98596.78;2590607;28;19983;-83
2022/04/12 02:40:20;;;;;;;;;;;;;;;-3.23;81.44;98599.13;2592084;28;19925;-82
2022/04/12 02:41:36;;;;;;;;;;;;;;;-3.25;81.61;98600.75;2593500;28;20007;-83
2022/04/12 02:42:51;;;;;;;;;;;;;;;-3.31;81.79;98601.44;2590300;28;19952;-84
2022/04/12 02:44:07;;;;;;;;;;;;;;;-3.35;81.98;98601.31;2590689;28;19932;-84
2022/04/12 02:45:22;;;;;;;;;;;;;;;-3.33;81.50;98603.09;2590472;28;20375;-83
2022/04/12 02:46:38;;;;;;;;;;;;;;;-3.34;81.64;98601.38;2591220;28;19936;-83
2022/04/12 02:47:53;;;;;;;;;;;;;;;-3.38;81.71;98602.06;2591610;28;19929;-82
2022/04/12 02:49:08;;;;;;;;;;;;;;;-3.39;82.34;98602.03;2591767;28;19921;-83
2022/04/12 02:50:24;;;;;;;;;;;;;;;-3.40;82.36;98601.16;2592589;28;20379;-82
2022/04/12 02:51:39;;;;;;;;;;;;;;;-3.46;81.62;98604.41;2591895;28;19924;-82
2022/04/12 02:52:55;;;;;;;;;;;;;;;-3.50;82.19;98607.69;2590635;28;19932;-81
2022/04/12 02:54:10;;;;;;;;;;;;;;;-3.52;82.17;98613.56;2591985;28;19971;-82
2022/04/12 02:55:26;;;;;;;;;;;;;;;-3.51;82.01;98610.19;2591484;28;19928;-82
2022/04/12 02:56:41;;;;;;;;;;;;;;;-3.50;81.97;98611.94;2593430;28;19929;-82
2022/04/12 02:57:57;;;;;;;;;;;;;;;-3.52;82.43;98613.56;2591890;28;19936;-85
2022/04/12 02:59:12;;;;;;;;;;;;;;;-3.53;82.01;98617.84;2590983;28;19925;-83
2022/04/12 03:00:28;;;;;;;;;;;;;;;-3.57;82.59;98611.75;2590070;28;20299;-84
2022/04/12 03:01:43;;;;;;;;;;;;;;;-3.56;83.10;98617.75;2591551;28;19926;-83
2022/04/12 03:02:59;;;;;;;;;;;;;;;-3.63;83.42;98614.13;2590503;28;19925;-83
2022/04/12 03:04:14;;;;;;;;;;;;;;;-3.64;83.21;98617.47;2590690;28;19936;-82
2022/04/12 03:05:29;;;;;;;;;;;;;;;-3.63;83.31;98621.81;2589890;28;20390;-83
2022/04/12 03:06:45;;;;;;;;;;;;;;;-3.62;82.80;98613.31;2590629;28;19925;-87
2022/04/12 03:08:01;;;;;;;;;;;;;;;-3.64;82.32;98617.47;2593189;28;19940;-86
2022/04/12 03:09:18;;;;;;;;;;;;;;;-3.64;82.61;98616.63;2592540;28;20376;-82
2022/04/12 03:10:33;;;;;;;;;;;;;;;-3.68;82.81;98620.78;2592722;28;20253;-84
2022/04/12 03:11:49;;;;;;;;;;;;;;;-3.67;82.90;98619.94;2591315;28;19925;-83
2022/04/12 03:13:04;;;;;;;;;;;;;;;-3.67;83.39;98625.06;2591218;28;19951;-84
2022/04/12 03:14:20;;;;;;;;;;;;;;;-3.69;83.42;98625.03;2591294;28;19979;-83
2022/04/12 03:15:35;;;;;;;;;;;;;;;-3.68;82.83;98623.34;2590316;28;19932;-83
2022/04/12 03:16:50;;;;;;;;;;;;;;;-3.66;83.09;98629.38;2590550;28;19977;-87
2022/04/12 03:18:06;;;;;;;;;;;;;;;-3.64;84.02;98619.19;2590785;28;19945;-83
2022/04/12 03:19:22;;;;;;;;;;;;;;;-3.62;84.21;98621.00;2590203;28;19948;-83
2022/04/12 03:20:37;;;;;;;;;;;;;;;-3.60;83.53;98616.78;2592072;28;19976;-82
2022/04/12 03:21:52;;;;;;;;;;;;;;;-3.56;83.31;98618.59;2592243;28;19921;-81
2022/04/12 03:23:08;;;;;;;;;;;;;;;-3.55;82.35;98615.22;2590343;28;19925;-82
2022/04/12 03:24:23;;;;;;;;;;;;;;;-3.51;82.39;98610.19;2590286;28;20384;-83
2022/04/12 03:25:39;;;;;;;;;;;;;;;-3.53;82.36;98614.41;2592216;28;19926;-82
2022/04/12 03:26:54;;;;;;;;;;;;;;;-3.60;81.78;98611.66;2590682;28;19961;-85
2022/04/12 03:28:10;;;;;;;;;;;;;;;-3.65;81.89;98613.19;2592148;28;20324;-84
2022/04/12 03:29:27;;;;;;;;;;;;;;;-3.67;81.85;98613.97;2590369;28;19929;-84
2022/04/12 03:30:43;;;;;;;;;;;;;;;-3.69;82.37;98611.38;2591473;28;19984;-81
2022/04/12 03:31:59;;;;;;;;;;;;;;;-3.71;81.95;98610.44;2590550;28;20012;-82
2022/04/12 03:33:14;;;;;;;;;;;;;;;-3.73;81.54;98612.94;2591901;28;20349;-84
2022/04/12 03:34:30;;;;;;;;;;;;;;;-3.79;82.44;98611.88;2589778;28;19968;-81
2022/04/12 03:35:45;;;;;;;;;;;;;;;-3.83;82.57;98604.13;2593268;28;19925;-82
2022/04/12 03:37:00;;;;;;;;;;;;;;;-3.84;82.95;98601.53;2592653;28;19936;-83
2022/04/12 03:38:16;;;;;;;;;;;;;;;-3.87;82.49;98597.16;2591445;28;20376;-83
2022/04/12 03:39:32;;;;;;;;;;;;;;;-3.85;82.41;98600.66;2590899;28;20410;-86
2022/04/12 03:40:47;;;;;;;;;;;;;;;-3.79;83.17;98599.97;2593498;28;19932;-83
2022/04/12 03:42:04;;;;;;;;;;;;;;;-3.74;84.06;98595.00;2592789;28;19979;-83
2022/04/12 03:43:20;;;;;;;;;;;;;;;-3.57;83.31;98604.06;2591437;28;19929;-87
2022/04/12 03:44:35;;;;;;;;;;;;;;;-3.42;83.36;98605.38;2591311;28;19924;-83
2022/04/12 03:45:51;;;;;;;;;;;;;;;-3.47;83.86;98596.69;2591288;28;20359;-85
2022/04/12 03:47:07;;;;;;;;;;;;;;;-3.51;84.09;98594.84;2590088;28;19975;-85
2022/04/12 03:48:22;;;;;;;;;;;;;;;-3.56;84.44;98603.25;2590220;28;20530;-82
2022/04/12 03:49:38;;;;;;;;;;;;;;;-3.66;83.98;98593.53;2591831;28;19925;-83
2022/04/12 03:50:53;;;;;;;;;;;;;;;-3.76;84.25;98601.78;2590201;28;19995;-83
2022/04/12 03:52:09;;;;;;;;;;;;;;;-3.83;84.69;98603.25;2592687;28;19925;-82
2022/04/12 03:53:25;;;;;;;;;;;;;;;-3.86;85.12;98598.91;2592431;28;19924;-82
2022/04/12 03:54:40;;;;;;;;;;;;;;;-3.86;84.70;98601.47;2593222;28;19925;-82
2022/04/12 03:55:55;;;;;;;;;;;;;;;-3.89;84.44;98591.13;2590487;28;20444;-82
2022/04/12 03:57:11;;;;;;;;;;;;;;;-3.90;83.81;98597.06;2592159;28;20392;-82
2022/04/12 03:58:26;;;;;;;;;;;;;;;-3.91;84.95;98603.03;2589991;28;19925;-83
2022/04/12 03:59:42;;;;;;;;;;;;;;;-3.91;85.03;98605.56;2592202;28;20422;-84
2022/04/12 04:00:57;;;;;;;;;;;;;;;-3.89;85.31;98595.38;2590502;28;19925;-82
2022/04/12 04:02:13;;;;;;;;;;;;;;;-3.87;84.58;98604.84;2589592;28;19925;-82
2022/04/12 04:03:28;;;;;;;;;;;;;;;-3.87;84.28;98597.16;2591771;28;19933;-82
2022/04/12 04:04:43;;;;;;;;;;;;;;;-3.88;83.75;98598.00;2589742;28;20867;-82
2022/04/12 04:05:59;;;;;;;;;;;;;;;-3.91;83.77;98597.03;2591197;28;19936;-82
2022/04/12 04:07:14;;;;;;;;;;;;;;;-3.92;83.28;98596.13;2589801;28;19925;-85
2022/04/12 04:08:30;;;;;;;;;;;;;;;-3.92;83.15;98598.69;2589728;28;19926;-84
2022/04/12 04:09:45;;;;;;;;;;;;;;;-3.92;83.11;98593.56;2590166;28;19925;-82
2022/04/12 04:11:01;;;;;;;;;;;;;;;-3.90;82.54;98594.53;2590944;28;19936;-83
2022/04/12 04:12:16;;;;;;;;;;;;;;;-3.94;82.93;98589.25;2589948;28;19925;-82
2022/04/12 04:13:36;;;;;;;;;;;;;;;-3.96;83.45;98591.75;2590077;28;19944;-82
2022/04/12 04:14:51;;;;;;;;;;;;;;;-3.97;83.32;98592.56;2590951;28;20316;-82
2022/04/12 04:16:07;;;;;;;;;;;;;;;-3.96;82.90;98589.19;2591217;28;20380;-82
2022/04/12 04:17:22;;;;;;;;;;;;;;;-3.94;83.61;98585.00;2590535;28;20014;-82
2022/04/12 04:18:38;;;;;;;;;;;;;;;-3.93;83.22;98586.72;2589539;28;19925;-84
2022/04/12 04:19:53;;;;;;;;;;;;;;;-3.92;83.30;98579.94;2591244;28;19929;-83
2022/04/12 04:21:08;;;;;;;;;;;;;;;-3.91;83.86;98582.56;2590903;28;20364;-83
2022/04/12 04:22:24;;;;;;;;;;;;;;;-3.87;84.62;98586.06;2591237;28;19925;-82
2022/04/12 04:23:39;;;;;;;;;;;;;;;-3.88;84.97;98585.19;2588619;28;19925;-82
2022/04/12 04:24:54;;;;;;;;;;;;;;;-3.83;84.32;98590.47;2589458;28;20498;-83
2022/04/12 04:26:10;;;;;;;;;;;;;;;-3.78;85.12;98586.34;2591486;28;19979;-83
2022/04/12 04:27:28;;;;;;;;;;;;;;;-3.56;87.55;98589.59;2590543;28;19956;-82
2022/04/12 04:28:45;;;;;;;;;;;;;;;-3.66;87.83;98593.53;2589809;28;20425;-83
2022/04/12 04:30:00;;;;;;;;;;;;;;;-3.54;87.98;98590.50;2589772;28;19925;-82
2022/04/12 04:31:16;;;;;;;;;;;;;;;-3.50;87.33;98588.88;2591209;28;19921;-82
2022/04/12 04:32:31;;;;;;;;;;;;;;;-3.42;88.02;98590.00;2590193;28;19983;-82
2022/04/12 04:33:47;;;;;;;;;;;;;;;-3.48;88.19;98597.50;2590982;28;19925;-82
2022/04/12 04:35:03;;;;;;;;;;;;;;;-3.51;88.08;98594.84;2591282;28;19939;-82
2022/04/12 04:36:19;;;;;;;;;;;;;;;-3.48;88.15;98598.38;2590275;28;19978;-85
2022/04/12 04:37:41;;;;;;;;;;;;;;;-3.47;88.10;98602.66;2590045;28;19925;-82
2022/04/12 04:38:56;;;;;;;;;;;;;;;-3.45;87.77;98611.25;2589523;28;20438;-82
2022/04/12 04:40:19;;;;;;;;;;;;;;;-3.32;87.70;98609.94;2590661;28;19925;-84
2022/04/12 04:41:34;;;;;;;;;;;;;;;-3.09;87.63;98609.75;2589317;28;19925;-84
2022/04/12 04:42:52;;;;;;;;;;;;;;;-3.08;86.96;98614.03;2589656;28;19926;-83
2022/04/12 04:44:10;;;;;;;;;;;;;;;-3.16;86.58;98607.84;2590527;28;19932;-87
2022/04/12 04:45:26;;;;;;;;;;;;;;;-3.20;86.22;98608.59;2589142;28;20486;-87
2022/04/12 04:46:41;;;;;;;;;;;;;;;-3.21;85.88;98611.94;2590901;28;19929;-84
2022/04/12 04:47:57;;;;;;;;;;;;;;;-3.21;85.49;98606.81;2590952;28;19975;-86
2022/04/12 04:49:13;;;;;;;;;;;;;;;-3.14;85.07;98611.31;2589969;28;19995;-84
2022/04/12 04:50:33;;;;;;;;;;;;;;;-3.13;84.98;98607.94;2591186;28;19921;-83
2022/04/12 04:51:48;;;;;;;;;;;;;;;-3.22;85.26;98612.75;2589808;28;19932;-84
2022/04/12 04:53:05;;;;;;;;;;;;;;;-3.28;85.29;98621.16;2589699;28;19925;-83
2022/04/12 04:54:21;;;;;;;;;;;;;;;-3.33;85.73;98618.47;2589676;28;19929;-83
2022/04/12 04:55:37;;;;;;;;;;;;;;;-3.32;85.59;98621.88;2590194;28;20774;-84
2022/04/12 04:56:52;;;;;;;;;;;;;;;-3.34;85.36;98624.41;2589793;28;19940;-83
2022/04/12 04:58:08;;;;;;;;;;;;;;;-3.36;85.57;98632.84;2589780;28;20537;-81
2022/04/12 04:59:23;;;;;;;;;;;;;;;-3.36;85.34;98632.84;2589555;28;19932;-86
2022/04/12 05:00:39;;;;;;;;;;;;;;;-3.35;85.18;98629.47;2589840;28;19975;-87
2022/04/12 05:01:54;;;;;;;;;;;;;;;-3.34;85.54;98631.19;2590784;28;20415;-83
2022/04/12 05:03:10;;;;;;;;;;;;;;;-3.33;85.68;98630.38;2591357;28;20372;-84
2022/04/12 05:04:26;;;;;;;;;;;;;;;-3.31;85.58;98636.41;2591150;28;19925;-83
2022/04/12 05:05:41;;;;;;;;;;;;;;;-3.10;86.53;98646.44;2592775;28;19965;-82
2022/04/12 05:06:57;;;;;;;;;;;;;;;-3.08;86.53;98638.81;2589927;28;20372;-82
2022/04/12 05:08:12;;;;;;;;;;;;;;;-3.03;86.89;98645.81;2592757;28;19925;-82
2022/04/12 05:09:27;;;;;;;;;;;;;;;-3.03;87.05;98645.81;2592319;28;19925;-83
2022/04/12 05:10:43;;;;;;;;;;;;;;;-2.86;86.74;98654.00;2592903;28;19925;-82
2022/04/12 05:11:59;;;;;;;;;;;;;;;-2.81;86.75;98650.69;2593994;28;20442;-82
2022/04/12 05:13:15;;;;;;;;;;;;;;;-2.73;86.89;98656.88;2591751;28;19925;-82
2022/04/12 05:14:30;;;;;;;;;;;;;;;-2.78;86.58;98661.91;2591005;28;19925;-87
2022/04/12 05:15:46;;;;;;;;;;;;;;;-2.71;86.62;98661.25;2591130;28;20269;-84
2022/04/12 05:17:01;;;;;;;;;;;;;;;-2.70;86.92;98665.53;2594205;28;20011;-82
2022/04/12 05:18:16;;;;;;;;;;;;;;;-2.61;86.46;98666.63;2591936;28;19983;-83
2022/04/12 05:19:32;;;;;;;;;;;;;;;-2.59;86.00;98673.53;2592546;28;19925;-84
2022/04/12 05:20:49;;;;;;;;;;;;;;;-2.60;85.55;98669.22;2591512;28;19936;-83
2022/04/12 05:22:05;;;;;;;;;;;;;;;-2.60;85.94;98664.09;2591880;28;19925;-83
2022/04/12 05:23:20;;;;;;;;;;;;;;;-2.59;86.36;98664.97;2590925;28;19929;-85
2022/04/12 05:24:36;;;;;;;;;;;;;;;-2.57;86.49;98671.91;2592086;28;19925;-84
2022/04/12 05:25:53;;;;;;;;;;;;;;;-2.59;86.12;98670.97;2593382;28;19929;-84
2022/04/12 05:27:09;;;;;;;;;;;;;;;-2.59;86.38;98675.22;2594348;28;20063;-86
2022/04/12 05:28:24;;;;;;;;;;;;;;;-2.56;86.70;98677.88;2590143;28;19924;-85
2022/04/12 05:29:40;;;;;;;;;;;;;;;-2.55;86.99;98674.50;2591385;28;20360;-82
2022/04/12 05:30:55;;;;;;;;;;;;;;;-2.50;86.68;98672.94;2592645;28;20125;-83
2022/04/12 05:32:13;;;;;;;;;;;;;;;-2.45;86.27;98671.38;2593138;28;19929;-87
2022/04/12 05:33:28;;;;;;;;;;;;;;;-2.41;86.18;98675.75;2592293;28;19921;-88
2022/04/12 05:34:45;;;;;;;;;;;;;;;-2.35;86.78;98669.91;2591355;28;19971;-86
2022/04/12 05:36:00;;;;;;;;;;;;;;;-2.25;86.56;98671.03;2591635;28;19924;-84
2022/04/12 05:37:28;;;;;;;;;;;;;;;-2.22;86.28;98675.38;2591278;28;19952;-87
2022/04/12 05:38:47;;;;;;;;;;;;;;;-2.10;86.03;98673.16;2592192;28;19957;-84
2022/04/12 05:40:03;;;;;;;;;;;;;;;-1.91;85.18;98669.38;2591829;28;19925;-80
2022/04/12 05:41:19;;;;;;;;;;;;;;;-1.91;84.88;98673.63;2594394;28;19925;-82
2022/04/12 05:42:34;;;;;;;;;;;;;;;-1.81;84.67;98677.31;2592845;28;20000;-82
2022/04/12 05:43:50;;;;;;;;;;;;;;;-1.78;84.47;98672.25;2591955;28;19925;-85
2022/04/12 05:45:08;;;;;;;;;;;;;;;-1.75;84.45;98664.63;2592776;28;19943;-82
2022/04/12 05:46:23;;;;;;;;;;;;;;;-1.68;84.03;98669.06;2592190;28;19932;-82
2022/04/12 05:47:39;;;;;;;;;;;;;;;-1.66;83.90;98666.53;2590565;28;20376;-81
2022/04/12 05:48:55;;;;;;;;;;;;;;;-1.53;83.74;98665.16;2592388;28;19932;-81
2022/04/12 05:50:11;;;;;;;;;;;;;;;-1.54;83.86;98668.53;2591562;28;19925;-82
2022/04/12 05:51:26;;;;;;;;;;;;;;;-1.53;83.87;98673.72;2591681;28;19925;-82
2022/04/12 05:52:43;;;;;;;;;;;;;;;-1.57;84.28;98670.19;2593327;28;19997;-82
2022/04/12 05:53:58;;;;;;;;;;;;;;;-1.50;84.29;98671.22;2591521;28;20330;-81
2022/04/12 05:55:15;;;;;;;;;;;;;;;-1.45;84.18;98673.91;2591887;28;19925;-81
2022/04/12 05:56:30;;;;;;;;;;;;;;;-1.35;83.87;98673.28;2593368;28;19925;-81
2022/04/12 05:58:03;;;;;;;;;;;;;;;-1.29;83.51;98672.56;2590820;28;19957;-85
2022/04/12 05:59:18;;;;;;;;;;;;;;;-1.25;83.55;98681.22;2590692;28;19926;-82
2022/04/12 06:00:34;;;;;;;;;;;;;;;-1.22;83.50;98674.44;2592641;28;19921;-82
2022/04/12 06:01:49;;;;;;;;;;;;;;;-1.15;82.69;98676.31;2593089;28;19925;-82
2022/04/12 06:03:06;;;;;;;;;;;;;;;-1.15;82.88;98681.47;2592953;28;19987;-82
2022/04/12 06:04:21;;;;;;;;;;;;;;;-1.12;83.41;98683.22;2592513;28;19986;-83
2022/04/12 06:05:37;;;;;;;;;;;;;;;-1.08;82.80;98679.91;2592708;28;20412;-83
2022/04/12 06:06:54;;;;;;;;;;;;;;;-1.08;82.96;98677.34;2591140;28;19925;-83
2022/04/12 06:08:10;;;;;;;;;;;;;;;-1.01;82.57;98684.34;2592093;28;19932;-84
2022/04/12 06:09:25;;;;;;;;;;;;;;;-0.96;82.32;98676.72;2594234;28;20411;-83
2022/04/12 06:10:41;;;;;;;;;;;;;;;-0.93;82.42;98676.78;2591918;28;19925;-83
2022/04/12 06:11:56;;;;;;;;;;;;;;;-0.93;82.34;98673.38;2592792;28;19925;-83
2022/04/12 06:13:12;;;;;;;;;;;;;;;-0.86;81.44;98675.22;2590661;28;20418;-83
2022/04/12 06:14:27;;;;;;;;;;;;;;;-0.78;80.40;98670.25;2591495;28;19983;-84
2022/04/12 06:15:43;;;;;;;;;;;;;;;-0.69;80.58;98670.44;2590462;28;19926;-83
2022/04/12 06:16:58;;;;;;;;;;;;;;;-0.57;79.65;98669.81;2592868;28;19932;-82
2022/04/12 06:18:14;;;;;;;;;;;;;;;-0.49;79.06;98663.13;2592790;28;19979;-83
2022/04/12 06:19:29;;;;;;;;;;;;;;;-0.40;78.12;98670.16;2593869;28;20279;-83
2022/04/12 06:20:45;;;;;;;;;;;;;;;-0.37;80.22;98664.22;2593327;28;19925;-83
2022/04/12 06:22:00;;;;;;;;;;;;;;;-0.28;80.36;98659.22;2591965;28;19922;-83
2022/04/12 06:23:17;;;;;;;;;;;;;;;-0.23;81.08;98667.94;2591999;28;19975;-83
2022/04/12 06:24:33;;;;;;;;;;;;;;;-0.21;81.71;98662.78;2592681;28;20348;-82
2022/04/12 06:25:48;;;;;;;;;;;;;;;-0.16;81.18;98661.19;2590725;28;19929;-82
2022/04/12 06:27:04;;;;;;;;;;;;;;;-0.05;81.36;98657.13;2591197;28;19925;-82
2022/04/12 06:28:19;;;;;;;;;;;;;;;0.03;81.38;98661.53;2590996;28;20336;-83
2022/04/12 06:29:34;;;;;;;;;;;;;;;0.08;81.36;98662.50;2590512;28;20433;-83
2022/04/12 06:30:51;;;;;;;;;;;;;;;0.15;81.08;98659.16;2592639;28;19925;-82
2022/04/12 06:32:06;;;;;;;;;;;;;;;0.22;80.93;98661.03;2592734;28;19988;-82
2022/04/12 06:33:22;;;;;;;;;;;;;;;0.31;81.26;98670.59;2591340;28;19936;-84
2022/04/12 06:34:37;;;;;;;;;;;;;;;0.37;80.79;98665.53;2590868;28;19924;-85
2022/04/12 06:35:52;;;;;;;;;;;;;;;0.47;80.52;98668.28;2591535;28;20459;-82
2022/04/12 06:37:08;;;;;;;;;;;;;;;0.55;78.99;98677.88;2592657;28;19929;-85